X  Close Metar Aviation Weather Data     LGTS Thessaloniki Macedonia International Airport
Temperature
9°C Temperature
4°C Dewpoint
71% Humidity



Wind
3 KM/H
2 MPH
1 M/S
2 KTS



Calm
North
Current Conditions

Partly Cloudy Partly Cloudy
Pressure 1033.92 (hPa) - 30.53 (inHg)
Visibility 6.2 (mile) - 10 (km)
Airport
Airport-code LGTS

Location: Thessaloniki Macedonia International Airport
Distance: 85 (km)

Metar:
LGTS 020750Z VRB02KT 9999 FEW015 SCT030 09/04 Q1034 NOSIG

Time: 02-03-2021 09:50 EET